Terminal Aerodrome Forecast
Issued by NWS Wilmington, NC

Home | Current Version | Previous Version | Text Only | Print | Product List | Glossary On
Versions: 1 2 3 4 5 6 7 8 9 10 11 12 13 14 15 16 17
000
FTUS42 KILM 011734
TAFFLO
TAF
KFLO 011734Z 0118/0218 30004KT P6SM BKN060
     FM011900 22005KT P6SM SCT100 SCT250
     FM020000 VRB04KT P6SM FEW250
      TEMPO 0209/0211 4SM BR=

USA.gov is the U.S. government's official web portal to all federal, state and local government web resources and services.